Time;durP1;ratioP1;P1;durP2;ratioP2;P2;SDS_P1;SDS_P2;PMS_P1;PMS_P2;Temp;Humidity;BMP_temperature;BMP_pressure;BME280_temperature;BME280_humidity;BME280_pressure;Samples;Min_cycle;Max_cycle;Signal;HPM_P1;HPM_P2
2023/08/10 00:00:12;;;;;;;5.57;2.50;;;18.40;99.90;;;;;;5052415;28;20165;-72
2023/08/10 00:02:39;;;;;;;5.53;2.40;;;18.40;99.90;;;;;;5050999;28;20184;-72
2023/08/10 00:05:05;;;;;;;6.00;2.58;;;18.40;99.90;;;;;;5051137;28;20170;-72
2023/08/10 00:07:31;;;;;;;3.35;2.40;;;18.40;99.90;;;;;;5051859;28;20233;-72
2023/08/10 00:09:57;;;;;;;3.60;2.22;;;18.40;99.90;;;;;;5052289;28;20169;-72
2023/08/10 00:12:23;;;;;;;3.63;2.20;;;18.40;99.90;;;;;;5052131;28;20666;-71
2023/08/10 00:14:49;;;;;;;4.15;2.33;;;18.40;99.90;;;;;;5050956;28;20165;-71
2023/08/10 00:17:16;;;;;;;6.80;2.30;;;18.40;99.90;;;;;;5052137;28;20173;-71
2023/08/10 00:19:42;;;;;;;5.45;2.17;;;18.20;99.90;;;;;;5052134;28;20169;-72
2023/08/10 00:22:08;;;;;;;5.45;2.60;;;18.30;99.90;;;;;;5052019;28;20169;-72
2023/08/10 00:24:34;;;;;;;3.20;2.25;;;18.30;99.90;;;;;;5051101;28;20216;-71
2023/08/10 00:26:59;;;;;;;5.22;2.15;;;18.30;99.90;;;;;;5050504;28;20215;-72
2023/08/10 00:29:25;;;;;;;3.60;2.17;;;18.20;99.90;;;;;;5052009;28;20649;-72
2023/08/10 00:31:51;;;;;;;5.07;2.13;;;18.20;99.90;;;;;;5051797;28;20256;-72
2023/08/10 00:34:17;;;;;;;6.60;2.28;;;18.20;99.90;;;;;;5050583;28;20234;-71
2023/08/10 00:36:42;;;;;;;3.88;2.50;;;18.30;99.90;;;;;;5051931;28;20567;-72
2023/08/10 00:39:08;;;;;;;2.67;1.85;;;18.00;99.90;;;;;;5051862;28;20897;-71
2023/08/10 00:41:34;;;;;;;3.85;2.30;;;;;;;;;;5051349;28;20165;-71
2023/08/10 00:43:59;;;;;;;3.10;2.20;;;18.20;99.90;;;;;;5051782;28;20169;-72
2023/08/10 00:46:26;;;;;;;3.80;2.10;;;18.10;99.90;;;;;;5051458;28;20281;-71
2023/08/10 00:48:52;;;;;;;2.45;2.15;;;18.10;99.90;;;;;;5051627;28;20280;-71
2023/08/10 00:51:18;;;;;;;5.32;2.40;;;18.00;99.90;;;;;;5051441;28;20176;-72
2023/08/10 00:53:44;;;;;;;5.03;2.33;;;18.00;99.90;;;;;;5051610;28;20177;-71
2023/08/10 00:56:11;;;;;;;2.83;1.92;;;18.10;99.90;;;;;;5051287;28;20185;-71
2023/08/10 00:58:37;;;;;;;7.53;1.98;;;18.00;99.90;;;;;;5050265;28;20173;-71
2023/08/10 01:01:04;;;;;;;2.88;2.03;;;17.90;99.90;;;;;;5049954;28;20184;-72
2023/08/10 01:03:30;;;;;;;3.38;2.10;;;17.90;99.90;;;;;;5051549;28;20211;-71
2023/08/10 01:06:18;;;;;;;3.30;1.90;;;17.90;99.90;;;;;;5051143;28;20310;-72
2023/08/10 01:09:06;;;;;;;5.93;2.20;;;17.80;99.90;;;;;;5050925;28;20612;-71
2023/08/10 01:11:48;;;;;;;5.90;2.08;;;17.80;99.90;;;;;;5051014;28;20177;-69
2023/08/10 01:14:25;;;;;;;4.72;2.20;;;17.80;99.90;;;;;;5050640;28;20177;-71
2023/08/10 01:16:51;;;;;;;2.97;2.10;;;17.80;99.90;;;;;;5050857;28;20267;-72
2023/08/10 01:19:26;;;;;;;4.57;2.10;;;17.80;99.90;;;;;;5051121;28;20230;-72
2023/08/10 01:22:13;;;;;;;3.95;2.42;;;17.60;99.90;;;;;;5050756;28;20176;-71
2023/08/10 01:24:44;;;;;;;2.80;1.65;;;17.30;99.90;;;;;;5050428;28;20213;-70
2023/08/10 01:27:13;;;;;;;2.00;1.75;;;17.40;99.90;;;;;;5050424;28;20204;-70
2023/08/10 01:29:41;;;;;;;3.75;1.65;;;17.50;99.90;;;;;;5049490;28;20651;-69
2023/08/10 01:32:13;;;;;;;2.25;1.80;;;17.50;99.90;;;;;;5050860;28;20169;-70
2023/08/10 01:34:39;;;;;;;6.97;2.00;;;17.60;99.90;;;;;;5030880;28;20236;-70
2023/08/10 01:37:05;;;;;;;2.85;1.77;;;17.50;99.90;;;;;;5030982;28;20177;-69
2023/08/10 01:39:32;;;;;;;5.95;2.28;;;17.50;99.90;;;;;;5031052;28;20170;-70
2023/08/10 01:41:58;;;;;;;3.05;2.08;;;17.60;99.90;;;;;;5030798;28;20652;-70
2023/08/10 01:44:23;;;;;;;6.03;1.95;;;17.50;99.90;;;;;;5031300;28;20177;-70
2023/08/10 01:46:52;;;;;;;3.88;1.77;;;17.40;99.90;;;;;;5050584;28;20266;-70
2023/08/10 01:49:20;;;;;;;2.70;1.67;;;17.40;99.90;;;;;;5050838;28;20181;-70
2023/08/10 01:51:48;;;;;;;2.08;1.55;;;17.40;99.90;;;;;;5050702;28;20165;-70
2023/08/10 01:54:15;;;;;;;3.38;2.00;;;17.40;99.90;;;;;;5050784;28;20177;-70
2023/08/10 01:56:40;;;;;;;2.20;1.55;;;17.30;99.90;;;;;;5050594;28;20177;-71
2023/08/10 01:59:06;;;;;;;3.28;1.70;;;17.30;99.90;;;;;;5050700;28;20222;-70
2023/08/10 02:01:32;;;;;;;6.35;1.65;;;17.30;99.90;;;;;;5050614;28;20169;-70
2023/08/10 02:03:57;;;;;;;3.13;1.70;;;17.30;99.90;;;;;;5050758;28;20576;-70
2023/08/10 02:06:23;;;;;;;2.42;1.65;;;17.30;99.90;;;;;;5050426;28;20180;-71
2023/08/10 02:08:48;;;;;;;3.35;1.73;;;17.30;99.90;;;;;;5050566;28;20543;-71
2023/08/10 02:11:14;;;;;;;4.00;1.90;;;17.20;99.90;;;;;;5034146;28;20648;-71
2023/08/10 02:13:40;;;;;;;4.18;2.10;;;17.10;99.90;;;;;;5030747;28;20180;-71
2023/08/10 02:16:05;;;;;;;4.55;1.60;;;17.10;99.90;;;;;;5030638;28;20265;-71
2023/08/10 02:18:31;;;;;;;4.00;1.45;;;16.80;99.90;;;;;;5030747;28;20166;-71
2023/08/10 02:20:56;;;;;;;2.63;1.75;;;17.00;99.90;;;;;;5030967;28;20177;-71
2023/08/10 02:23:22;;;;;;;3.55;1.70;;;17.00;99.90;;;;;;5050675;28;20164;-72
2023/08/10 02:25:48;;;;;;;4.07;1.65;;;17.00;99.90;;;;;;5050085;28;20224;-71
2023/08/10 02:28:13;;;;;;;2.40;1.45;;;17.00;99.90;;;;;;5050629;28;20744;-72
2023/08/10 02:30:39;;;;;;;4.63;1.60;;;16.90;99.90;;;;;;5048490;28;20724;-71
2023/08/10 02:33:05;;;;;;;2.65;1.85;;;16.80;99.90;;;;;;5050199;28;20177;-71
2023/08/10 02:35:30;;;;;;;2.47;1.52;;;16.90;99.90;;;;;;5050061;28;20260;-70
2023/08/10 02:37:56;;;;;;;5.28;1.45;;;16.80;99.90;;;;;;5049138;28;20178;-72
2023/08/10 02:40:22;;;;;;;2.67;1.50;;;;;;;;;;5048676;28;20170;-71
2023/08/10 02:42:48;;;;;;;3.55;1.50;;;16.80;99.90;;;;;;5050167;28;20173;-72
2023/08/10 02:45:13;;;;;;;3.90;1.70;;;16.80;99.90;;;;;;5050362;28;20566;-70
2023/08/10 02:47:39;;;;;;;4.72;1.33;;;16.80;99.90;;;;;;5052105;28;20583;-71
2023/08/10 02:50:05;;;;;;;3.35;1.33;;;16.80;99.90;;;;;;5053738;28;20247;-70
2023/08/10 02:52:31;;;;;;;4.60;1.80;;;16.80;99.90;;;;;;5053699;28;20176;-70
2023/08/10 02:54:57;;;;;;;3.92;1.48;;;16.70;99.90;;;;;;5053814;28;20165;-70
2023/08/10 02:57:22;;;;;;;2.10;1.50;;;16.70;99.90;;;;;;5052258;28;20174;-70
2023/08/10 02:59:48;;;;;;;2.88;1.52;;;16.70;99.90;;;;;;5053726;28;20165;-70
2023/08/10 03:02:17;;;;;;;2.80;1.80;;;16.50;99.90;;;;;;5053388;28;20651;-70
2023/08/10 03:04:43;;;;;;;2.58;1.50;;;16.50;99.90;;;;;;5053668;28;20169;-71
2023/08/10 03:07:09;;;;;;;4.07;1.60;;;16.60;99.90;;;;;;5053471;28;20228;-71
2023/08/10 03:09:34;;;;;;;4.15;1.60;;;16.40;99.90;;;;;;5053421;28;20169;-70
2023/08/10 03:12:00;;;;;;;5.25;1.70;;;16.40;99.90;;;;;;5053154;28;20180;-70
2023/08/10 03:14:26;;;;;;;4.35;1.70;;;16.40;99.90;;;;;;5053461;28;20260;-70
2023/08/10 03:16:52;;;;;;;4.10;1.55;;;16.40;99.90;;;;;;5052895;28;20173;-70
2023/08/10 03:19:17;;;;;;;2.72;1.33;;;16.40;99.90;;;;;;5053368;28;20181;-70
2023/08/10 03:21:43;;;;;;;3.25;1.60;;;16.30;99.90;;;;;;5053103;28;20536;-70
2023/08/10 03:24:08;;;;;;;3.10;1.73;;;16.20;99.90;;;;;;5053274;28;20237;-70
2023/08/10 03:26:34;;;;;;;3.03;1.38;;;16.30;99.90;;;;;;5052972;28;20280;-70
2023/08/10 03:29:00;;;;;;;5.85;1.73;;;16.00;99.90;;;;;;5053154;28;20184;-70
2023/08/10 03:31:26;;;;;;;5.15;1.40;;;16.10;99.90;;;;;;5053193;28;20659;-70
2023/08/10 03:33:52;;;;;;;3.42;1.70;;;16.20;99.90;;;;;;5051797;28;20691;-71
2023/08/10 03:36:19;;;;;;;4.18;1.40;;;;;;;;;;5051662;28;20173;-70
2023/08/10 03:38:45;;;;;;;4.97;1.35;;;16.20;99.90;;;;;;5052832;28;20870;-70
2023/08/10 03:41:12;;;;;;;5.88;1.90;;;16.20;99.90;;;;;;5052518;28;20201;-71
2023/08/10 03:43:37;;;;;;;2.40;1.65;;;16.20;99.90;;;;;;5052671;28;20220;-70
2023/08/10 03:46:05;;;;;;;2.65;1.50;;;16.10;99.90;;;;;;5051059;28;20220;-71
2023/08/10 03:48:30;;;;;;;3.25;1.80;;;16.10;99.90;;;;;;5052503;28;20205;-70
2023/08/10 03:50:56;;;;;;;5.05;1.88;;;16.10;99.90;;;;;;5052300;28;20706;-71
2023/08/10 03:53:22;;;;;;;3.33;1.40;;;16.10;99.90;;;;;;5052399;28;20213;-69
2023/08/10 03:55:47;;;;;;;2.20;1.63;;;16.00;99.90;;;;;;5051149;28;20181;-70
2023/08/10 03:58:13;;;;;;;4.38;1.85;;;16.00;99.90;;;;;;5052099;28;20904;-70
2023/08/10 04:00:44;;;;;;;3.42;1.70;;;16.00;99.90;;;;;;5052529;28;20173;-72
2023/08/10 04:03:11;;;;;;;2.58;1.73;;;16.00;99.90;;;;;;5052205;28;20184;-71
2023/08/10 04:05:36;;;;;;;6.45;1.60;;;16.00;99.90;;;;;;5052077;28;20169;-70
2023/08/10 04:08:03;;;;;;;2.40;1.77;;;16.00;99.90;;;;;;5052209;28;20572;-71
2023/08/10 04:10:29;;;;;;;2.83;1.70;;;16.50;99.90;;;;;;5049226;28;20635;-70
2023/08/10 04:12:55;;;;;;;1.75;1.33;;;15.90;99.90;;;;;;5034938;28;20599;-71
2023/08/10 04:15:21;;;;;;;3.88;1.70;;;15.80;99.90;;;;;;5043794;28;20264;-71
2023/08/10 04:17:46;;;;;;;3.95;1.50;;;15.90;99.90;;;;;;5052136;28;20264;-71
2023/08/10 04:20:13;;;;;;;3.03;1.80;;;13.70;99.90;;;;;;5052075;28;20172;-70
2023/08/10 04:22:39;;;;;;;2.97;2.00;;;15.90;99.90;;;;;;5050724;28;20601;-70
2023/08/10 04:25:07;;;;;;;1.98;1.58;;;15.70;99.90;;;;;;5051692;28;20217;-70
2023/08/10 04:27:33;;;;;;;2.85;2.10;;;15.90;99.90;;;;;;5051732;28;20224;-71
2023/08/10 04:30:00;;;;;;;5.40;1.60;;;15.70;99.90;;;;;;5051915;28;20181;-71
2023/08/10 04:32:25;;;;;;;2.78;1.58;;;15.90;99.90;;;;;;5051891;28;20248;-71
2023/08/10 04:34:52;;;;;;;4.15;2.10;;;15.80;99.90;;;;;;5051802;28;20227;-71
2023/08/10 04:37:18;;;;;;;3.35;1.98;;;15.90;99.90;;;;;;5051557;28;20172;-71
2023/08/10 04:39:44;;;;;;;3.13;1.90;;;16.10;99.90;;;;;;5051909;28;20173;-69
2023/08/10 04:42:10;;;;;;;5.10;2.28;;;15.90;99.90;;;;;;5051566;28;20647;-70
2023/08/10 04:44:35;;;;;;;3.40;2.10;;;15.90;99.90;;;;;;5049724;28;20184;-70
2023/08/10 04:47:01;;;;;;;3.72;2.10;;;15.90;99.90;;;;;;5051103;28;20193;-70
2023/08/10 04:49:28;;;;;;;4.57;2.30;;;15.90;99.90;;;;;;5051527;28;20219;-69
2023/08/10 04:51:54;;;;;;;4.70;2.28;;;15.70;99.90;;;;;;5035842;28;20181;-71
2023/08/10 04:54:20;;;;;;;5.93;2.67;;;16.00;99.90;;;;;;5031461;28;20180;-70
2023/08/10 04:56:46;;;;;;;4.00;2.65;;;16.20;99.90;;;;;;5031550;28;20178;-70
2023/08/10 04:59:12;;;;;;;5.18;2.80;;;16.00;99.90;;;;;;5031336;28;20158;-70
2023/08/10 05:01:38;;;;;;;6.03;2.67;;;16.10;99.90;;;;;;5031297;28;20277;-70
2023/08/10 05:04:05;;;;;;;5.85;3.00;;;16.10;99.90;;;;;;5046381;28;20174;-69
2023/08/10 05:06:31;;;;;;;3.13;2.45;;;;;;;;;;5051277;28;20184;-70
2023/08/10 05:08:57;;;;;;;6.80;3.20;;;16.10;99.90;;;;;;5051431;28;20197;-70
2023/08/10 05:11:23;;;;;;;4.90;2.67;;;16.20;99.90;;;;;;5049343;28;20180;-69
2023/08/10 05:13:49;;;;;;;5.80;2.92;;;16.20;99.90;;;;;;5051301;28;20187;-70
2023/08/10 05:16:15;;;;;;;3.38;2.70;;;16.20;99.90;;;;;;5050890;28;20177;-71
2023/08/10 05:18:41;;;;;;;3.65;2.65;;;16.20;99.90;;;;;;5051153;28;20258;-70
2023/08/10 05:21:06;;;;;;;4.18;2.88;;;16.20;99.90;;;;;;5051000;28;20169;-70
2023/08/10 05:23:32;;;;;;;3.70;2.60;;;16.30;99.90;;;;;;5051015;28;20670;-70
2023/08/10 05:25:58;;;;;;;5.03;2.55;;;;;;;;;;5050798;28;20282;-71
2023/08/10 05:28:24;;;;;;;3.50;2.75;;;16.30;99.90;;;;;;5051110;28;20216;-71
2023/08/10 05:30:49;;;;;;;7.55;2.88;;;16.30;99.90;;;;;;5050929;28;20184;-71
2023/08/10 05:33:15;;;;;;;4.78;2.42;;;16.50;99.90;;;;;;5050568;28;20181;-71
2023/08/10 05:35:42;;;;;;;4.60;2.70;;;16.30;99.90;;;;;;5050373;28;20705;-71
2023/08/10 05:38:08;;;;;;;3.78;2.70;;;16.40;99.90;;;;;;5051021;28;20261;-71
2023/08/10 05:40:33;;;;;;;4.60;2.97;;;16.40;99.90;;;;;;5050569;28;20592;-71
2023/08/10 05:42:59;;;;;;;6.45;2.63;;;16.40;99.90;;;;;;5050762;28;20187;-71
2023/08/10 05:45:25;;;;;;;3.45;2.50;;;16.60;99.90;;;;;;5050909;28;20171;-70
2023/08/10 05:47:51;;;;;;;4.32;2.95;;;16.30;99.90;;;;;;5050559;28;20235;-71
2023/08/10 05:50:17;;;;;;;4.65;2.80;;;16.40;99.90;;;;;;5050933;28;20699;-70
2023/08/10 05:52:44;;;;;;;7.20;2.70;;;16.50;99.90;;;;;;5050635;28;20230;-70
2023/08/10 05:55:10;;;;;;;3.67;2.60;;;16.50;99.90;;;;;;5050734;28;20181;-70
2023/08/10 05:57:36;;;;;;;4.78;3.05;;;16.40;99.90;;;;;;5050710;28;20165;-71
2023/08/10 06:00:03;;;;;;;5.05;2.97;;;16.50;99.90;;;;;;5050656;28;20169;-71
2023/08/10 06:02:29;;;;;;;4.30;2.80;;;16.50;99.90;;;;;;5050565;28;20181;-71
2023/08/10 06:04:54;;;;;;;7.00;2.90;;;16.30;99.90;;;;;;5050914;28;20165;-71
2023/08/10 06:07:20;;;;;;;5.70;3.03;;;16.50;99.90;;;;;;5050622;28;20205;-70
2023/08/10 06:09:46;;;;;;;4.05;2.70;;;16.40;99.90;;;;;;5050616;28;20180;-70
2023/08/10 06:12:12;;;;;;;8.25;2.88;;;16.60;99.90;;;;;;5050467;28;20650;-71
2023/08/10 06:14:38;;;;;;;4.57;2.90;;;16.60;99.90;;;;;;5050757;28;20227;-71
2023/08/10 06:17:07;;;;;;;6.35;2.78;;;16.40;99.90;;;;;;5048826;28;20169;-72
2023/08/10 06:19:32;;;;;;;5.03;3.08;;;16.70;99.90;;;;;;5050866;28;20177;-70
2023/08/10 06:21:58;;;;;;;3.95;2.78;;;;;;;;;;5051425;28;20184;-71
2023/08/10 06:24:24;;;;;;;7.22;3.00;;;16.80;99.90;;;;;;5054492;28;20169;-70
2023/08/10 06:26:50;;;;;;;4.40;2.90;;;16.60;99.90;;;;;;5048548;28;20204;-70
2023/08/10 06:29:16;;;;;;;7.53;3.35;;;16.90;99.90;;;;;;5053865;28;20268;-70
2023/08/10 06:31:41;;;;;;;5.40;3.00;;;17.00;99.90;;;;;;5052640;28;20253;-69
2023/08/10 06:34:07;;;;;;;3.95;2.60;;;16.90;99.90;;;;;;5054286;28;20297;-68
2023/08/10 06:36:33;;;;;;;3.35;2.60;;;17.20;99.90;;;;;;5054136;28;20161;-70
2023/08/10 06:38:59;;;;;;;4.93;2.95;;;;;;;;;;5053833;28;20615;-70
2023/08/10 06:41:25;;;;;;;7.15;3.05;;;17.20;99.90;;;;;;5052479;28;20169;-69
2023/08/10 06:43:51;;;;;;;5.65;2.75;;;17.30;99.90;;;;;;5052674;28;20824;-69
2023/08/10 06:46:17;;;;;;;5.20;3.20;;;17.20;99.90;;;;;;5053565;28;20165;-69
2023/08/10 06:48:42;;;;;;;4.93;3.40;;;17.20;99.90;;;;;;5052856;28;20683;-69
2023/08/10 06:51:08;;;;;;;6.00;3.78;;;17.70;99.90;;;;;;5033870;28;20166;-70
2023/08/10 06:53:33;;;;;;;6.82;3.40;;;17.40;99.90;;;;;;5033808;28;20181;-71
2023/08/10 06:55:59;;;;;;;6.13;3.55;;;17.50;99.90;;;;;;5049052;28;20570;-71
2023/08/10 06:58:25;;;;;;;6.70;3.40;;;17.60;99.90;;;;;;5058398;28;20200;-70
2023/08/10 07:00:51;;;;;;;5.93;3.10;;;17.60;99.90;;;;;;5053309;28;20641;-70
2023/08/10 07:03:17;;;;;;;7.18;3.17;;;17.80;99.90;;;;;;5053388;28;20172;-71
2023/08/10 07:05:43;;;;;;;4.30;2.97;;;17.90;99.90;;;;;;5052611;28;20624;-70
2023/08/10 07:08:09;;;;;;;5.68;2.83;;;18.00;99.90;;;;;;5053474;28;20303;-70
2023/08/10 07:10:36;;;;;;;7.57;2.78;;;18.00;99.90;;;;;;5053012;28;20191;-71
2023/08/10 07:13:03;;;;;;;4.38;2.60;;;18.00;99.90;;;;;;5046726;28;20300;-70
2023/08/10 07:15:32;;;;;;;5.07;2.70;;;17.80;99.90;;;;;;5044937;28;20201;-70
2023/08/10 07:17:57;;;;;;;7.78;2.90;;;18.50;99.90;;;;;;5036954;28;20210;-70
2023/08/10 07:20:23;;;;;;;6.97;3.00;;;17.80;99.90;;;;;;5052121;28;20255;-69
2023/08/10 07:22:49;;;;;;;6.43;2.58;;;17.90;99.90;;;;;;5043944;28;20591;-70
2023/08/10 07:25:17;;;;;;;4.38;2.83;;;17.90;99.90;;;;;;5052741;28;20726;-70
2023/08/10 07:27:43;;;;;;;4.95;2.70;;;18.10;99.90;;;;;;5052800;28;20228;-70
2023/08/10 07:30:10;;;;;;;4.97;2.38;;;18.00;99.90;;;;;;5051656;28;20713;-70
2023/08/10 07:32:36;;;;;;;4.60;3.10;;;18.10;99.90;;;;;;5051777;28;20178;-70
2023/08/10 07:35:02;;;;;;;5.43;3.05;;;18.10;99.90;;;;;;5052843;28;20180;-70
2023/08/10 07:37:34;;;;;;;3.80;2.78;;;18.20;99.90;;;;;;5052916;28;20180;-69
2023/08/10 07:39:59;;;;;;;5.13;3.22;;;18.20;99.90;;;;;;5052919;28;20558;-70
2023/08/10 07:42:25;;;;;;;5.07;3.28;;;18.30;99.90;;;;;;5052290;28;20172;-70
2023/08/10 07:44:51;;;;;;;5.13;3.40;;;18.30;99.90;;;;;;5052473;28;20169;-70
2023/08/10 07:47:16;;;;;;;4.43;2.88;;;18.60;99.90;;;;;;5052537;28;20250;-68
2023/08/10 07:49:45;;;;;;;3.83;2.95;;;18.50;99.90;;;;;;5052841;28;20177;-68
2023/08/10 07:52:11;;;;;;;6.45;3.03;;;18.70;99.90;;;;;;5051655;28;20177;-70
2023/08/10 07:54:36;;;;;;;4.00;2.88;;;18.70;99.90;;;;;;5052424;28;20181;-68
2023/08/10 07:57:02;;;;;;;4.45;3.05;;;18.90;99.90;;;;;;5050039;28;20205;-69
2023/08/10 07:59:28;;;;;;;4.55;3.08;;;18.80;99.90;;;;;;5045934;28;20639;-69
2023/08/10 08:01:54;;;;;;;6.47;3.58;;;18.60;99.90;;;;;;5052806;28;20666;-69
2023/08/10 08:04:19;;;;;;;8.75;4.38;;;18.40;99.90;;;;;;5052427;28;20174;-67
2023/08/10 08:06:45;;;;;;;7.90;4.60;;;18.40;99.90;;;;;;5052118;28;20170;-68
2023/08/10 08:09:12;;;;;;;7.38;4.43;;;18.30;99.90;;;;;;5052000;28;20181;-67
2023/08/10 08:11:38;;;;;;;5.63;4.13;;;18.50;99.90;;;;;;5051915;28;20177;-70
2023/08/10 08:14:04;;;;;;;5.97;4.63;;;18.70;99.90;;;;;;5051581;28;20650;-69
2023/08/10 08:16:29;;;;;;;7.07;4.30;;;19.00;99.90;;;;;;5052014;28;20226;-71
2023/08/10 08:18:55;;;;;;;6.13;4.32;;;18.80;99.90;;;;;;5051446;28;20674;-70
2023/08/10 08:21:23;;;;;;;9.23;4.53;;;19.10;99.90;;;;;;5051719;28;20272;-70
2023/08/10 08:23:50;;;;;;;6.03;4.00;;;19.00;99.90;;;;;;5050381;28;20177;-70
2023/08/10 08:26:17;;;;;;;7.50;4.30;;;19.40;99.90;;;;;;5049635;28;20629;-70
2023/08/10 08:28:44;;;;;;;7.45;4.20;;;19.40;99.90;;;;;;5050279;28;20307;-71
2023/08/10 08:31:10;;;;;;;8.30;3.67;;;19.40;99.90;;;;;;5051702;28;20165;-70
2023/08/10 08:33:36;;;;;;;6.07;3.83;;;19.80;99.90;;;;;;5050078;28;20196;-71
2023/08/10 08:36:03;;;;;;;8.75;3.67;;;20.50;99.90;;;;;;5049712;28;20222;-71
2023/08/10 08:38:29;;;;;;;8.73;4.07;;;21.40;99.90;;;;;;5049645;28;20542;-71
2023/08/10 08:40:56;;;;;;;6.47;3.55;;;;;;;;;;5049589;28;20556;-71
2023/08/10 08:43:22;;;;;;;7.57;3.58;;;21.70;99.90;;;;;;5048323;28;20643;-72
2023/08/10 08:45:48;;;;;;;15.13;3.65;;;22.10;99.90;;;;;;5048598;28;20169;-71
2023/08/10 08:48:15;;;;;;;6.70;4.20;;;22.10;99.90;;;;;;5050579;28;20314;-71
2023/08/10 08:50:41;;;;;;;7.00;3.70;;;;;;;;;;5050388;28;20181;-71
2023/08/10 08:53:11;;;;;;;6.07;3.72;;;22.80;99.90;;;;;;5051272;28;20162;-71
2023/08/10 08:55:38;;;;;;;7.20;3.70;;;22.80;99.90;;;;;;5049925;28;20544;-71
2023/08/10 08:58:04;;;;;;;5.63;3.50;;;23.30;99.90;;;;;;5051124;28;20208;-72
2023/08/10 09:00:31;;;;;;;5.00;3.30;;;23.40;99.90;;;;;;5051336;28;20197;-71
2023/08/10 09:02:57;;;;;;;8.30;3.25;;;23.90;99.90;;;;;;5051361;28;20169;-70
2023/08/10 09:05:23;;;;;;;8.77;3.67;;;22.80;99.90;;;;;;5050709;28;20173;-70
2023/08/10 09:07:51;;;;;;;5.13;3.15;;;23.40;99.90;;;;;;5040499;28;20287;-70
2023/08/10 09:10:17;;;;;;;4.63;3.10;;;23.80;99.90;;;;;;5031097;28;20182;-70
2023/08/10 09:12:42;;;;;;;4.15;2.83;;;23.90;99.90;;;;;;5031056;28;20220;-72
2023/08/10 09:15:10;;;;;;;4.93;2.78;;;24.10;99.90;;;;;;5030956;28;20197;-71
2023/08/10 09:17:44;;;;;;;5.70;2.80;;;24.20;99.90;;;;;;5031038;28;20169;-71
2023/08/10 09:20:10;;;;;;;6.25;2.88;;;24.60;99.90;;;;;;5030958;28;20269;-70
2023/08/10 09:22:37;;;;;;;4.30;2.47;;;24.50;99.90;;;;;;5030847;28;20239;-71
2023/08/10 09:25:05;;;;;;;4.32;2.60;;;24.30;99.90;;;;;;5030903;28;20213;-70
2023/08/10 09:27:31;;;;;;;3.42;2.22;;;23.40;99.90;;;;;;5030656;28;20213;-71
2023/08/10 09:30:03;;;;;;;7.75;2.50;;;23.40;99.90;;;;;;5031102;28;20178;-71
2023/08/10 09:32:28;;;;;;;5.22;2.28;;;23.00;99.90;;;;;;5029592;28;20174;-71
2023/08/10 09:34:54;;;;;;;4.30;2.15;;;22.70;99.90;;;;;;5030810;28;20173;-71
2023/08/10 09:37:20;;;;;;;5.40;2.00;;;23.10;99.90;;;;;;5030858;28;20186;-70
2023/08/10 09:39:46;;;;;;;4.95;2.15;;;23.40;99.90;;;;;;5030884;28;20260;-71
2023/08/10 09:42:12;;;;;;;2.53;1.70;;;23.10;99.90;;;;;;5029200;28;20534;-71
2023/08/10 09:44:49;;;;;;;2.67;1.67;;;23.10;99.90;;;;;;5030785;28;20184;-71
2023/08/10 09:47:16;;;;;;;2.97;2.00;;;23.00;99.90;;;;;;5030586;28;20193;-71
2023/08/10 09:50:02;;;;;;;3.33;1.70;;;23.00;99.90;;;;;;5030588;28;20188;-70
2023/08/10 09:52:28;;;;;;;4.65;1.92;;;23.30;99.90;;;;;;5029351;28;20172;-71
2023/08/10 09:54:55;;;;;;;3.70;1.65;;;23.50;99.90;;;;;;5030582;28;20174;-71
2023/08/10 09:57:22;;;;;;;4.93;1.90;;;23.50;99.90;;;;;;5033990;28;20177;-71
2023/08/10 09:59:48;;;;;;;3.30;1.80;;;22.80;99.90;;;;;;5033368;28;20178;-71
2023/08/10 10:02:15;;;;;;;3.90;1.77;;;23.00;99.90;;;;;;5034455;28;20181;-71
2023/08/10 10:04:47;;;;;;;3.45;1.77;;;23.00;99.90;;;;;;5034765;28;20190;-71
2023/08/10 10:07:14;;;;;;;2.60;1.80;;;23.40;99.90;;;;;;5032823;28;20205;-70
2023/08/10 10:09:43;;;;;;;4.95;2.10;;;23.80;99.90;;;;;;5034451;28;20235;-70
2023/08/10 10:12:13;;;;;;;4.65;2.30;;;23.60;99.90;;;;;;5034158;28;20167;-70
2023/08/10 10:14:44;;;;;;;3.47;2.10;;;23.70;99.90;;;;;;5034140;28;20216;-70
2023/08/10 10:17:11;;;;;;;4.60;2.30;;;23.00;99.90;;;;;;5032735;28;20285;-70
2023/08/10 10:19:41;;;;;;;4.22;2.00;;;23.10;99.90;;;;;;5034496;28;20174;-70
2023/08/10 10:22:07;;;;;;;3.50;2.53;;;23.30;99.90;;;;;;5034159;28;20187;-70
2023/08/10 10:24:34;;;;;;;8.35;1.98;;;23.30;99.90;;;;;;5034043;28;20221;-71
2023/08/10 10:27:04;;;;;;;4.90;2.15;;;24.20;99.90;;;;;;5033987;28;20213;-69
2023/08/10 10:29:37;;;;;;;3.85;2.38;;;24.30;99.90;;;;;;5034295;28;20612;-70
2023/08/10 10:32:14;;;;;;;3.95;2.15;;;24.50;99.90;;;;;;5032692;28;20170;-69
2023/08/10 10:34:40;;;;;;;3.88;2.17;;;24.60;99.90;;;;;;5034017;28;20674;-69
2023/08/10 10:37:18;;;;;;;6.43;1.77;;;24.50;90.50;;;;;;5032558;28;20269;-70
2023/08/10 10:39:47;;;;;;;1.65;1.42;;;24.70;1.00;;;;;;5033847;28;20174;-70
2023/08/10 10:42:16;;;;;;;3.08;1.80;;;24.80;98.40;;;;;;5033823;28;20207;-70
2023/08/10 10:45:04;;;;;;;2.92;1.75;;;25.00;1.00;;;;;;5033884;28;20248;-69
2023/08/10 10:47:48;;;;;;;2.25;1.60;;;25.20;1.00;;;;;;5033661;28;20210;-73
2023/08/10 10:50:27;;;;;;;2.40;1.50;;;24.60;1.00;;;;;;5033749;28;20174;-70
2023/08/10 10:53:10;;;;;;;2.83;1.70;;;24.70;1.00;;;;;;5033760;28;20177;-70
2023/08/10 10:55:35;;;;;;;2.42;1.48;;;25.10;1.00;;;;;;5032414;28;20550;-70
2023/08/10 10:58:08;;;;;;;2.47;1.40;;;25.50;1.00;;;;;;5033431;28;20248;-70
2023/08/10 11:00:36;;;;;;;2.33;1.42;;;25.90;1.00;;;;;;5033429;28;20224;-70
2023/08/10 11:03:08;;;;;;;3.47;1.70;;;25.00;1.00;;;;;;5031908;28;20536;-70
2023/08/10 11:05:34;;;;;;;4.22;1.60;;;25.90;1.00;;;;;;5033733;28;20174;-70
2023/08/10 11:08:06;;;;;;;4.45;1.52;;;26.20;99.90;;;;;;5043955;28;20205;-70
2023/08/10 11:10:37;;;;;;;3.50;1.75;;;26.10;1.00;;;;;;5053079;28;20166;-70
2023/08/10 11:13:07;;;;;;;3.38;1.50;;;25.70;1.00;;;;;;5052078;28;20169;-70
2023/08/10 11:15:33;;;;;;;3.10;1.67;;;26.00;99.90;;;;;;5053108;28;20265;-71
2023/08/10 11:17:59;;;;;;;3.50;1.50;;;26.30;99.90;;;;;;5053070;28;20169;-71
2023/08/10 11:20:25;;;;;;;4.85;1.90;;;26.70;99.90;;;;;;5053038;28;20169;-71
2023/08/10 11:22:52;;;;;;;4.40;1.88;;;26.20;99.90;;;;;;5053014;28;20234;-71
2023/08/10 11:25:31;;;;;;;4.82;1.67;;;25.20;1.00;;;;;;5052847;28;20221;-72
2023/08/10 11:27:57;;;;;;;4.20;1.65;;;25.20;1.00;;;;;;5052564;28;20245;-70
2023/08/10 11:30:23;;;;;;;3.15;1.90;;;;;;;;;;5052790;28;20165;-70
2023/08/10 11:32:51;;;;;;;5.38;1.63;;;24.70;1.00;;;;;;5052653;28;20178;-71
2023/08/10 11:35:19;;;;;;;2.00;1.80;;;24.70;1.00;;;;;;5052787;28;20256;-70
2023/08/10 11:37:45;;;;;;;2.20;1.45;;;27.40;99.90;;;;;;5052749;28;20628;-71
2023/08/10 11:40:15;;;;;;;10.93;1.90;;;27.40;99.90;;;;;;5052055;28;20170;-71
2023/08/10 11:43:03;;;;;;;5.32;1.70;;;28.10;1.00;;;;;;5046398;28;20180;-71
2023/08/10 11:45:30;;;;;;;2.78;1.60;;;29.80;99.90;;;;;;5033245;28;20178;-70
2023/08/10 11:47:57;;;;;;;2.53;1.50;;;29.20;1.00;;;;;;5034876;28;20213;-71
2023/08/10 11:50:25;;;;;;;2.28;1.60;;;28.70;16.60;;;;;;5032503;28;20178;-73
2023/08/10 11:52:55;;;;;;;1.90;1.42;;;28.70;28.40;;;;;;5032537;28;20162;-71
2023/08/10 11:55:21;;;;;;;5.30;1.60;;;28.30;1.00;;;;;;5033636;28;20189;-72
2023/08/10 11:57:52;;;;;;;2.78;1.58;;;28.40;99.90;;;;;;5039254;28;20178;-72
2023/08/10 12:00:21;;;;;;;2.92;1.50;;;29.80;99.90;;;;;;5035015;28;20173;-71
2023/08/10 12:03:02;;;;;;;4.57;1.70;;;30.60;99.90;;;;;;5030941;28;20182;-71
2023/08/10 12:05:37;;;;;;;2.40;1.48;;;30.20;99.90;;;;;;5035878;28;20177;-71
2023/08/10 12:08:08;;;;;;;3.15;1.30;;;30.30;1.00;;;;;;5047360;28;20213;-72
2023/08/10 12:10:36;;;;;;;2.55;1.50;;;30.30;1.00;;;;;;5052216;28;20620;-72
2023/08/10 12:13:06;;;;;;;2.83;1.50;;;30.70;1.00;;;;;;5052191;28;20181;-72
2023/08/10 12:15:32;;;;;;;9.02;1.52;;;30.60;1.00;;;;;;5051839;28;20165;-71
2023/08/10 12:18:00;;;;;;;3.85;1.40;;;31.30;1.00;;;;;;5051449;28;20188;-71
2023/08/10 12:20:26;;;;;;;1.85;1.30;;;31.70;1.00;;;;;;5036504;28;20177;-72
2023/08/10 12:22:53;;;;;;;3.28;1.17;;;31.40;35.50;;;;;;5034701;28;20190;-72
2023/08/10 12:25:21;;;;;;;3.25;1.33;;;31.60;1.00;;;;;;5049217;28;20710;-72
2023/08/10 12:27:47;;;;;;;4.20;1.48;;;31.30;1.00;;;;;;5051698;28;20212;-71
2023/08/10 12:30:14;;;;;;;4.55;1.60;;;30.50;1.00;;;;;;5050467;28;20530;-71
2023/08/10 12:32:39;;;;;;;5.90;1.50;;;29.50;1.00;;;;;;5049321;28;20196;-72
2023/08/10 12:35:05;;;;;;;3.10;1.42;;;29.30;99.90;;;;;;5036971;28;20666;-73
2023/08/10 12:37:31;;;;;;;2.10;1.50;;;28.60;99.90;;;;;;5037725;28;20633;-72
2023/08/10 12:39:57;;;;;;;3.08;1.60;;;28.60;11.30;;;;;;5047242;28;20216;-71
2023/08/10 12:42:24;;;;;;;3.90;1.90;;;28.00;1.00;;;;;;5031564;28;20197;-72
2023/08/10 12:44:50;;;;;;;4.43;1.60;;;27.30;1.00;;;;;;5041109;28;20267;-69
2023/08/10 12:47:16;;;;;;;3.55;1.70;;;29.00;99.90;;;;;;5048220;28;20209;-71
2023/08/10 12:49:42;;;;;;;1.80;1.58;;;28.80;99.90;;;;;;5047771;28;20176;-70